Gobowen, United Kingdom
Current Conditions -  °F | °C
As of 6:50 AM on Monday 24 Nov 2014 (Local Time) from EGOS Reporting Station
Clear Clear  
Wind Chill: 29°   Ceiling: Unl
Heat Index: 34°   Visibility: 6mi
Dew Point: 34°   Wind: 6mph
Humidity: 100%   Direction: 200°SSW
Pressure: 30.24"   Gusts: NA
Location:  52.9°N, 3.04°W
Report Text: EGOS 240650Z 20005KT CAVOK 01/01 Q1024 BLU NOSIG
Loading
Personal Weather Stations






























Interactive Weather Map New forecast layout! Learn more

10-Day Weather Forecast

Advertisements
Track Severe Weather on mobile